sensor_id;sensor_type;location;lat;lon;timestamp;P1;durP1;ratioP1;P2;durP2;ratioP2
19183;SDS011;9724;51.194;6.856;2022-07-10T00:01:07;5.47;;;1.30;;
19183;SDS011;9724;51.194;6.856;2022-07-10T00:03:34;14.27;;;1.67;;
19183;SDS011;9724;51.194;6.856;2022-07-10T00:06:02;4.00;;;1.53;;
19183;SDS011;9724;51.194;6.856;2022-07-10T00:08:30;4.70;;;1.57;;
19183;SDS011;9724;51.194;6.856;2022-07-10T00:10:58;2.83;;;1.30;;
19183;SDS011;9724;51.194;6.856;2022-07-10T00:13:27;4.93;;;1.53;;
19183;SDS011;9724;51.194;6.856;2022-07-10T00:15:54;4.70;;;1.30;;
19183;SDS011;9724;51.194;6.856;2022-07-10T00:18:22;6.43;;;1.57;;
19183;SDS011;9724;51.194;6.856;2022-07-10T00:20:50;5.73;;;1.90;;
19183;SDS011;9724;51.194;6.856;2022-07-10T00:23:17;5.57;;;2.03;;
19183;SDS011;9724;51.194;6.856;2022-07-10T00:25:45;4.47;;;2.10;;
19183;SDS011;9724;51.194;6.856;2022-07-10T00:28:13;9.43;;;2.23;;
19183;SDS011;9724;51.194;6.856;2022-07-10T00:30:42;8.10;;;2.53;;
19183;SDS011;9724;51.194;6.856;2022-07-10T00:33:10;7.37;;;2.40;;
19183;SDS011;9724;51.194;6.856;2022-07-10T00:35:37;6.20;;;1.80;;
19183;SDS011;9724;51.194;6.856;2022-07-10T00:38:05;8.77;;;2.03;;
19183;SDS011;9724;51.194;6.856;2022-07-10T00:40:33;9.07;;;1.70;;
19183;SDS011;9724;51.194;6.856;2022-07-10T00:43:00;5.77;;;1.77;;
19183;SDS011;9724;51.194;6.856;2022-07-10T00:45:28;8.13;;;2.37;;
19183;SDS011;9724;51.194;6.856;2022-07-10T00:47:58;7.37;;;2.00;;
19183;SDS011;9724;51.194;6.856;2022-07-10T00:50:26;7.37;;;1.80;;
19183;SDS011;9724;51.194;6.856;2022-07-10T00:52:54;5.17;;;1.97;;
19183;SDS011;9724;51.194;6.856;2022-07-10T00:55:22;6.93;;;1.80;;
19183;SDS011;9724;51.194;6.856;2022-07-10T00:57:50;2.80;;;1.53;;
19183;SDS011;9724;51.194;6.856;2022-07-10T01:00:18;5.27;;;1.70;;
19183;SDS011;9724;51.194;6.856;2022-07-10T01:02:46;6.53;;;1.73;;
19183;SDS011;9724;51.194;6.856;2022-07-10T01:05:15;5.80;;;1.70;;
19183;SDS011;9724;51.194;6.856;2022-07-10T01:07:42;4.20;;;1.80;;
19183;SDS011;9724;51.194;6.856;2022-07-10T01:10:10;4.40;;;1.60;;
19183;SDS011;9724;51.194;6.856;2022-07-10T01:12:38;6.10;;;2.00;;
19183;SDS011;9724;51.194;6.856;2022-07-10T01:15:07;5.70;;;1.60;;
19183;SDS011;9724;51.194;6.856;2022-07-10T01:17:35;6.07;;;1.70;;
19183;SDS011;9724;51.194;6.856;2022-07-10T01:20:06;9.00;;;1.63;;
19183;SDS011;9724;51.194;6.856;2022-07-10T01:22:35;12.83;;;1.87;;
19183;SDS011;9724;51.194;6.856;2022-07-10T01:25:03;9.57;;;1.90;;
19183;SDS011;9724;51.194;6.856;2022-07-10T01:27:32;6.07;;;1.70;;
19183;SDS011;9724;51.194;6.856;2022-07-10T01:30:00;9.17;;;1.67;;
19183;SDS011;9724;51.194;6.856;2022-07-10T01:32:28;2.97;;;1.40;;
19183;SDS011;9724;51.194;6.856;2022-07-10T01:35:04;3.17;;;1.30;;
19183;SDS011;9724;51.194;6.856;2022-07-10T01:37:32;6.03;;;1.40;;
19183;SDS011;9724;51.194;6.856;2022-07-10T01:40:02;5.23;;;1.40;;
19183;SDS011;9724;51.194;6.856;2022-07-10T01:42:30;3.87;;;1.50;;
19183;SDS011;9724;51.194;6.856;2022-07-10T01:44:58;4.60;;;1.40;;
19183;SDS011;9724;51.194;6.856;2022-07-10T01:47:32;9.03;;;1.20;;
19183;SDS011;9724;51.194;6.856;2022-07-10T01:50:00;6.00;;;1.53;;
19183;SDS011;9724;51.194;6.856;2022-07-10T01:52:28;6.17;;;1.50;;
19183;SDS011;9724;51.194;6.856;2022-07-10T01:54:55;6.97;;;1.70;;
19183;SDS011;9724;51.194;6.856;2022-07-10T01:57:24;8.70;;;1.53;;
19183;SDS011;9724;51.194;6.856;2022-07-10T01:59:52;4.10;;;1.60;;
19183;SDS011;9724;51.194;6.856;2022-07-10T02:02:20;4.10;;;1.67;;
19183;SDS011;9724;51.194;6.856;2022-07-10T02:04:47;6.50;;;1.63;;
19183;SDS011;9724;51.194;6.856;2022-07-10T02:07:15;2.77;;;1.37;;
19183;SDS011;9724;51.194;6.856;2022-07-10T02:09:44;6.00;;;1.37;;
19183;SDS011;9724;51.194;6.856;2022-07-10T02:12:13;3.03;;;1.50;;
19183;SDS011;9724;51.194;6.856;2022-07-10T02:14:43;8.93;;;2.23;;
19183;SDS011;9724;51.194;6.856;2022-07-10T02:17:11;4.20;;;1.60;;
19183;SDS011;9724;51.194;6.856;2022-07-10T02:19:39;4.63;;;1.30;;
19183;SDS011;9724;51.194;6.856;2022-07-10T02:22:07;4.07;;;1.50;;
19183;SDS011;9724;51.194;6.856;2022-07-10T02:24:34;6.20;;;1.40;;
19183;SDS011;9724;51.194;6.856;2022-07-10T02:27:02;4.90;;;1.43;;
19183;SDS011;9724;51.194;6.856;2022-07-10T02:29:31;5.17;;;1.40;;
19183;SDS011;9724;51.194;6.856;2022-07-10T02:32:00;9.93;;;1.47;;
19183;SDS011;9724;51.194;6.856;2022-07-10T02:34:27;6.13;;;1.40;;
19183;SDS011;9724;51.194;6.856;2022-07-10T02:36:55;7.47;;;1.80;;
19183;SDS011;9724;51.194;6.856;2022-07-10T02:39:23;9.93;;;1.70;;
19183;SDS011;9724;51.194;6.856;2022-07-10T02:41:51;6.07;;;1.43;;
19183;SDS011;9724;51.194;6.856;2022-07-10T02:44:18;8.63;;;1.90;;
19183;SDS011;9724;51.194;6.856;2022-07-10T02:46:46;8.33;;;1.87;;
19183;SDS011;9724;51.194;6.856;2022-07-10T02:49:15;7.63;;;1.63;;
19183;SDS011;9724;51.194;6.856;2022-07-10T02:51:43;6.77;;;1.80;;
19183;SDS011;9724;51.194;6.856;2022-07-10T02:54:11;6.03;;;1.50;;
19183;SDS011;9724;51.194;6.856;2022-07-10T02:56:38;8.40;;;1.50;;
19183;SDS011;9724;51.194;6.856;2022-07-10T02:59:06;10.67;;;1.67;;
19183;SDS011;9724;51.194;6.856;2022-07-10T03:01:34;7.00;;;2.10;;
19183;SDS011;9724;51.194;6.856;2022-07-10T03:04:02;4.70;;;1.50;;
19183;SDS011;9724;51.194;6.856;2022-07-10T03:06:31;7.57;;;1.80;;
19183;SDS011;9724;51.194;6.856;2022-07-10T03:08:59;5.30;;;1.60;;
19183;SDS011;9724;51.194;6.856;2022-07-10T03:11:26;5.27;;;1.83;;
19183;SDS011;9724;51.194;6.856;2022-07-10T03:13:54;5.90;;;1.70;;
19183;SDS011;9724;51.194;6.856;2022-07-10T03:16:21;5.27;;;1.60;;
19183;SDS011;9724;51.194;6.856;2022-07-10T03:18:49;9.50;;;2.10;;
19183;SDS011;9724;51.194;6.856;2022-07-10T03:21:17;8.40;;;1.63;;
19183;SDS011;9724;51.194;6.856;2022-07-10T03:23:46;7.20;;;2.50;;
19183;SDS011;9724;51.194;6.856;2022-07-10T03:26:13;4.83;;;1.60;;
19183;SDS011;9724;51.194;6.856;2022-07-10T03:28:41;4.97;;;2.17;;
19183;SDS011;9724;51.194;6.856;2022-07-10T03:31:09;7.57;;;1.90;;
19183;SDS011;9724;51.194;6.856;2022-07-10T03:33:36;4.93;;;1.83;;
19183;SDS011;9724;51.194;6.856;2022-07-10T03:36:05;7.60;;;1.50;;
19183;SDS011;9724;51.194;6.856;2022-07-10T03:38:33;5.90;;;2.13;;
19183;SDS011;9724;51.194;6.856;2022-07-10T03:41:03;10.97;;;2.17;;
19183;SDS011;9724;51.194;6.856;2022-07-10T03:43:30;8.50;;;1.93;;
19183;SDS011;9724;51.194;6.856;2022-07-10T03:45:58;3.63;;;1.40;;
19183;SDS011;9724;51.194;6.856;2022-07-10T03:48:26;9.20;;;1.93;;
19183;SDS011;9724;51.194;6.856;2022-07-10T03:50:53;6.07;;;1.80;;
19183;SDS011;9724;51.194;6.856;2022-07-10T03:53:21;16.40;;;2.77;;
19183;SDS011;9724;51.194;6.856;2022-07-10T03:55:49;7.50;;;2.37;;
19183;SDS011;9724;51.194;6.856;2022-07-10T03:58:18;7.47;;;1.87;;
19183;SDS011;9724;51.194;6.856;2022-07-10T04:00:44;8.90;;;1.90;;
19183;SDS011;9724;51.194;6.856;2022-07-10T04:03:12;7.17;;;2.23;;
19183;SDS011;9724;51.194;6.856;2022-07-10T04:05:40;6.10;;;1.83;;
19183;SDS011;9724;51.194;6.856;2022-07-10T04:08:07;5.40;;;1.67;;
19183;SDS011;9724;51.194;6.856;2022-07-10T04:10:36;5.20;;;1.60;;
19183;SDS011;9724;51.194;6.856;2022-07-10T04:13:03;3.63;;;1.50;;
19183;SDS011;9724;51.194;6.856;2022-07-10T04:15:32;5.57;;;2.03;;
19183;SDS011;9724;51.194;6.856;2022-07-10T04:18:00;7.03;;;1.67;;
19183;SDS011;9724;51.194;6.856;2022-07-10T04:20:28;9.87;;;1.50;;
19183;SDS011;9724;51.194;6.856;2022-07-10T04:22:56;3.80;;;1.50;;
19183;SDS011;9724;51.194;6.856;2022-07-10T04:25:23;3.83;;;1.60;;
19183;SDS011;9724;51.194;6.856;2022-07-10T04:27:51;2.73;;;1.50;;
19183;SDS011;9724;51.194;6.856;2022-07-10T04:30:19;7.57;;;1.70;;
19183;SDS011;9724;51.194;6.856;2022-07-10T04:32:48;6.17;;;1.67;;
19183;SDS011;9724;51.194;6.856;2022-07-10T04:35:15;4.60;;;1.60;;
19183;SDS011;9724;51.194;6.856;2022-07-10T04:37:43;5.83;;;2.10;;
19183;SDS011;9724;51.194;6.856;2022-07-10T04:40:11;7.80;;;1.60;;
19183;SDS011;9724;51.194;6.856;2022-07-10T04:42:38;4.93;;;1.90;;
19183;SDS011;9724;51.194;6.856;2022-07-10T04:45:06;8.73;;;2.13;;
19183;SDS011;9724;51.194;6.856;2022-07-10T04:47:34;5.03;;;1.87;;
19183;SDS011;9724;51.194;6.856;2022-07-10T04:50:04;5.80;;;1.80;;
19183;SDS011;9724;51.194;6.856;2022-07-10T04:52:32;6.10;;;1.60;;
19183;SDS011;9724;51.194;6.856;2022-07-10T04:55:00;3.60;;;1.53;;
19183;SDS011;9724;51.194;6.856;2022-07-10T04:57:27;6.53;;;1.90;;
19183;SDS011;9724;51.194;6.856;2022-07-10T04:59:55;3.67;;;1.50;;
19183;SDS011;9724;51.194;6.856;2022-07-10T05:02:23;8.27;;;1.97;;
19183;SDS011;9724;51.194;6.856;2022-07-10T05:04:51;6.43;;;1.97;;
19183;SDS011;9724;51.194;6.856;2022-07-10T05:07:20;6.00;;;2.20;;
19183;SDS011;9724;51.194;6.856;2022-07-10T05:09:48;4.40;;;1.50;;
19183;SDS011;9724;51.194;6.856;2022-07-10T05:12:15;8.23;;;1.80;;
19183;SDS011;9724;51.194;6.856;2022-07-10T05:14:43;5.83;;;2.00;;
19183;SDS011;9724;51.194;6.856;2022-07-10T05:17:11;8.80;;;1.90;;
19183;SDS011;9724;51.194;6.856;2022-07-10T05:19:38;7.37;;;1.90;;
19183;SDS011;9724;51.194;6.856;2022-07-10T05:22:06;4.90;;;1.90;;
19183;SDS011;9724;51.194;6.856;2022-07-10T05:24:36;7.17;;;2.27;;
19183;SDS011;9724;51.194;6.856;2022-07-10T05:27:05;10.20;;;2.27;;
19183;SDS011;9724;51.194;6.856;2022-07-10T05:29:33;4.40;;;2.00;;
19183;SDS011;9724;51.194;6.856;2022-07-10T05:32:01;6.60;;;2.30;;
19183;SDS011;9724;51.194;6.856;2022-07-10T05:34:29;6.00;;;1.93;;
19183;SDS011;9724;51.194;6.856;2022-07-10T05:36:57;15.50;;;2.60;;
19183;SDS011;9724;51.194;6.856;2022-07-10T05:39:25;5.47;;;2.10;;
19183;SDS011;9724;51.194;6.856;2022-07-10T05:41:54;4.97;;;1.50;;
19183;SDS011;9724;51.194;6.856;2022-07-10T05:44:23;6.47;;;1.70;;
19183;SDS011;9724;51.194;6.856;2022-07-10T05:46:51;6.13;;;1.53;;
19183;SDS011;9724;51.194;6.856;2022-07-10T05:49:19;8.03;;;1.80;;
19183;SDS011;9724;51.194;6.856;2022-07-10T05:51:47;7.30;;;1.67;;
19183;SDS011;9724;51.194;6.856;2022-07-10T05:54:14;5.47;;;1.43;;
19183;SDS011;9724;51.194;6.856;2022-07-10T05:56:42;6.43;;;1.60;;
19183;SDS011;9724;51.194;6.856;2022-07-10T05:59:12;7.43;;;1.80;;
19183;SDS011;9724;51.194;6.856;2022-07-10T06:01:40;11.03;;;2.03;;
19183;SDS011;9724;51.194;6.856;2022-07-10T06:04:07;6.80;;;1.87;;
19183;SDS011;9724;51.194;6.856;2022-07-10T06:06:35;5.37;;;1.90;;
19183;SDS011;9724;51.194;6.856;2022-07-10T06:09:03;8.27;;;2.20;;
19183;SDS011;9724;51.194;6.856;2022-07-10T06:11:31;6.93;;;1.90;;
19183;SDS011;9724;51.194;6.856;2022-07-10T06:13:59;4.90;;;1.73;;
19183;SDS011;9724;51.194;6.856;2022-07-10T06:16:28;4.67;;;1.90;;
19183;SDS011;9724;51.194;6.856;2022-07-10T06:18:56;6.00;;;1.70;;
19183;SDS011;9724;51.194;6.856;2022-07-10T06:21:24;6.50;;;1.90;;
19183;SDS011;9724;51.194;6.856;2022-07-10T06:23:51;6.23;;;1.97;;
19183;SDS011;9724;51.194;6.856;2022-07-10T06:26:19;8.03;;;2.03;;
19183;SDS011;9724;51.194;6.856;2022-07-10T06:28:47;5.27;;;2.20;;
19183;SDS011;9724;51.194;6.856;2022-07-10T06:31:15;5.37;;;1.60;;
19183;SDS011;9724;51.194;6.856;2022-07-10T06:33:44;8.40;;;1.73;;
19183;SDS011;9724;51.194;6.856;2022-07-10T06:36:11;4.70;;;1.80;;
19183;SDS011;9724;51.194;6.856;2022-07-10T06:38:39;6.00;;;2.43;;
19183;SDS011;9724;51.194;6.856;2022-07-10T06:41:08;5.30;;;2.03;;
19183;SDS011;9724;51.194;6.856;2022-07-10T06:43:36;6.37;;;2.00;;
19183;SDS011;9724;51.194;6.856;2022-07-10T06:46:04;11.20;;;2.40;;
19183;SDS011;9724;51.194;6.856;2022-07-10T06:48:32;2.87;;;1.60;;
19183;SDS011;9724;51.194;6.856;2022-07-10T06:51:00;7.13;;;1.97;;
19183;SDS011;9724;51.194;6.856;2022-07-10T06:53:28;7.83;;;2.00;;
19183;SDS011;9724;51.194;6.856;2022-07-10T06:55:55;5.97;;;1.97;;
19183;SDS011;9724;51.194;6.856;2022-07-10T06:58:23;3.77;;;1.63;;
19183;SDS011;9724;51.194;6.856;2022-07-10T07:00:51;6.90;;;2.00;;
19183;SDS011;9724;51.194;6.856;2022-07-10T07:03:18;10.70;;;1.93;;
19183;SDS011;9724;51.194;6.856;2022-07-10T07:05:46;10.90;;;2.20;;
19183;SDS011;9724;51.194;6.856;2022-07-10T07:08:15;7.50;;;2.40;;
19183;SDS011;9724;51.194;6.856;2022-07-10T07:10:43;9.83;;;2.43;;
19183;SDS011;9724;51.194;6.856;2022-07-10T07:13:11;7.37;;;1.77;;
19183;SDS011;9724;51.194;6.856;2022-07-10T07:15:39;4.90;;;2.13;;
19183;SDS011;9724;51.194;6.856;2022-07-10T07:18:12;7.03;;;2.10;;
19183;SDS011;9724;51.194;6.856;2022-07-10T07:20:42;17.07;;;2.37;;
19183;SDS011;9724;51.194;6.856;2022-07-10T07:23:28;7.40;;;2.20;;
19183;SDS011;9724;51.194;6.856;2022-07-10T07:25:56;10.00;;;2.33;;
19183;SDS011;9724;51.194;6.856;2022-07-10T07:28:24;5.53;;;2.20;;
19183;SDS011;9724;51.194;6.856;2022-07-10T07:30:52;7.73;;;2.40;;
19183;SDS011;9724;51.194;6.856;2022-07-10T07:33:20;8.90;;;2.23;;
19183;SDS011;9724;51.194;6.856;2022-07-10T07:35:48;6.33;;;2.60;;
19183;SDS011;9724;51.194;6.856;2022-07-10T07:38:16;6.63;;;2.17;;
19183;SDS011;9724;51.194;6.856;2022-07-10T07:40:45;8.43;;;2.60;;
19183;SDS011;9724;51.194;6.856;2022-07-10T07:43:12;8.63;;;2.43;;
19183;SDS011;9724;51.194;6.856;2022-07-10T07:45:40;9.53;;;1.97;;
19183;SDS011;9724;51.194;6.856;2022-07-10T07:48:08;11.00;;;2.03;;
19183;SDS011;9724;51.194;6.856;2022-07-10T07:50:35;9.97;;;2.03;;
19183;SDS011;9724;51.194;6.856;2022-07-10T07:53:04;5.73;;;1.87;;
19183;SDS011;9724;51.194;6.856;2022-07-10T07:55:33;9.93;;;2.10;;
19183;SDS011;9724;51.194;6.856;2022-07-10T07:58:03;7.87;;;2.03;;
19183;SDS011;9724;51.194;6.856;2022-07-10T08:00:31;3.33;;;1.77;;
19183;SDS011;9724;51.194;6.856;2022-07-10T08:02:59;11.40;;;2.20;;
19183;SDS011;9724;51.194;6.856;2022-07-10T08:05:28;9.23;;;2.10;;
19183;SDS011;9724;51.194;6.856;2022-07-10T08:07:57;9.83;;;2.30;;
19183;SDS011;9724;51.194;6.856;2022-07-10T08:10:30;14.97;;;3.90;;
19183;SDS011;9724;51.194;6.856;2022-07-10T08:12:58;13.70;;;3.67;;
19183;SDS011;9724;51.194;6.856;2022-07-10T08:15:27;12.27;;;3.67;;
19183;SDS011;9724;51.194;6.856;2022-07-10T08:17:55;12.50;;;4.03;;
19183;SDS011;9724;51.194;6.856;2022-07-10T08:20:24;14.47;;;3.70;;
19183;SDS011;9724;51.194;6.856;2022-07-10T08:22:53;11.87;;;3.30;;
19183;SDS011;9724;51.194;6.856;2022-07-10T08:25:26;7.43;;;2.97;;
19183;SDS011;9724;51.194;6.856;2022-07-10T08:27:59;7.33;;;3.37;;
19183;SDS011;9724;51.194;6.856;2022-07-10T08:30:28;9.70;;;3.50;;
19183;SDS011;9724;51.194;6.856;2022-07-10T08:32:56;9.17;;;3.80;;
19183;SDS011;9724;51.194;6.856;2022-07-10T08:35:24;10.53;;;4.07;;
19183;SDS011;9724;51.194;6.856;2022-07-10T08:37:52;8.23;;;3.83;;
19183;SDS011;9724;51.194;6.856;2022-07-10T08:40:21;10.07;;;3.20;;
19183;SDS011;9724;51.194;6.856;2022-07-10T08:42:49;6.20;;;3.03;;
19183;SDS011;9724;51.194;6.856;2022-07-10T08:45:17;7.93;;;4.10;;
19183;SDS011;9724;51.194;6.856;2022-07-10T08:47:46;12.03;;;3.50;;
19183;SDS011;9724;51.194;6.856;2022-07-10T08:50:15;12.97;;;3.90;;
19183;SDS011;9724;51.194;6.856;2022-07-10T08:52:47;12.33;;;4.00;;
19183;SDS011;9724;51.194;6.856;2022-07-10T08:55:20;3.73;;;3.43;;
19183;SDS011;9724;51.194;6.856;2022-07-10T08:57:50;7.93;;;3.27;;
19183;SDS011;9724;51.194;6.856;2022-07-10T09:00:18;8.57;;;3.40;;
19183;SDS011;9724;51.194;6.856;2022-07-10T09:02:47;11.03;;;3.43;;
19183;SDS011;9724;51.194;6.856;2022-07-10T09:05:15;9.53;;;3.40;;
19183;SDS011;9724;51.194;6.856;2022-07-10T09:07:43;11.13;;;3.00;;
19183;SDS011;9724;51.194;6.856;2022-07-10T09:10:11;8.33;;;3.00;;
19183;SDS011;9724;51.194;6.856;2022-07-10T09:12:49;7.53;;;2.70;;
19183;SDS011;9724;51.194;6.856;2022-07-10T09:15:18;7.90;;;2.50;;
19183;SDS011;9724;51.194;6.856;2022-07-10T09:17:55;4.57;;;2.20;;
19183;SDS011;9724;51.194;6.856;2022-07-10T09:20:28;9.73;;;2.23;;
19183;SDS011;9724;51.194;6.856;2022-07-10T09:22:57;8.27;;;2.70;;
19183;SDS011;9724;51.194;6.856;2022-07-10T09:25:30;8.77;;;4.20;;
19183;SDS011;9724;51.194;6.856;2022-07-10T09:28:00;12.63;;;4.80;;
19183;SDS011;9724;51.194;6.856;2022-07-10T09:30:32;10.87;;;5.37;;
19183;SDS011;9724;51.194;6.856;2022-07-10T09:33:15;9.60;;;5.37;;
19183;SDS011;9724;51.194;6.856;2022-07-10T09:36:02;9.33;;;4.60;;
19183;SDS011;9724;51.194;6.856;2022-07-10T09:41:21;12.00;;;5.03;;
19183;SDS011;9724;51.194;6.856;2022-07-10T09:43:51;9.90;;;4.07;;
19183;SDS011;9724;51.194;6.856;2022-07-10T09:46:21;8.27;;;3.43;;
19183;SDS011;9724;51.194;6.856;2022-07-10T09:49:00;7.27;;;2.57;;
19183;SDS011;9724;51.194;6.856;2022-07-10T09:51:29;7.43;;;2.10;;
19183;SDS011;9724;51.194;6.856;2022-07-10T09:54:00;6.63;;;1.87;;
19183;SDS011;9724;51.194;6.856;2022-07-10T09:56:30;9.80;;;2.10;;
19183;SDS011;9724;51.194;6.856;2022-07-10T09:59:01;7.33;;;2.10;;
19183;SDS011;9724;51.194;6.856;2022-07-10T10:01:35;7.50;;;2.20;;
19183;SDS011;9724;51.194;6.856;2022-07-10T10:04:06;7.83;;;2.07;;
19183;SDS011;9724;51.194;6.856;2022-07-10T10:06:33;3.97;;;1.83;;
19183;SDS011;9724;51.194;6.856;2022-07-10T10:09:04;5.23;;;1.97;;
19183;SDS011;9724;51.194;6.856;2022-07-10T10:11:33;9.00;;;2.27;;
19183;SDS011;9724;51.194;6.856;2022-07-10T10:14:03;9.90;;;1.90;;
19183;SDS011;9724;51.194;6.856;2022-07-10T10:16:34;6.43;;;1.90;;
19183;SDS011;9724;51.194;6.856;2022-07-10T10:19:03;14.53;;;2.50;;
19183;SDS011;9724;51.194;6.856;2022-07-10T10:21:49;4.80;;;1.60;;
19183;SDS011;9724;51.194;6.856;2022-07-10T10:24:17;10.27;;;1.90;;
19183;SDS011;9724;51.194;6.856;2022-07-10T10:26:45;11.60;;;2.17;;
19183;SDS011;9724;51.194;6.856;2022-07-10T10:29:13;8.13;;;2.20;;
19183;SDS011;9724;51.194;6.856;2022-07-10T10:31:41;4.20;;;2.17;;
19183;SDS011;9724;51.194;6.856;2022-07-10T10:34:09;3.87;;;1.90;;
19183;SDS011;9724;51.194;6.856;2022-07-10T10:36:46;4.73;;;1.87;;
19183;SDS011;9724;51.194;6.856;2022-07-10T10:39:16;4.73;;;1.70;;
19183;SDS011;9724;51.194;6.856;2022-07-10T10:41:49;7.73;;;1.80;;
19183;SDS011;9724;51.194;6.856;2022-07-10T10:44:27;2.30;;;1.53;;
19183;SDS011;9724;51.194;6.856;2022-07-10T10:47:02;4.93;;;1.60;;
19183;SDS011;9724;51.194;6.856;2022-07-10T10:49:52;3.97;;;1.60;;
19183;SDS011;9724;51.194;6.856;2022-07-10T10:52:22;6.27;;;2.60;;
19183;SDS011;9724;51.194;6.856;2022-07-10T10:55:06;1.90;;;1.50;;
19183;SDS011;9724;51.194;6.856;2022-07-10T10:57:41;5.00;;;1.63;;
19183;SDS011;9724;51.194;6.856;2022-07-10T11:00:14;3.87;;;1.50;;
19183;SDS011;9724;51.194;6.856;2022-07-10T11:02:43;3.93;;;1.50;;
19183;SDS011;9724;51.194;6.856;2022-07-10T11:08:11;5.20;;;1.70;;
19183;SDS011;9724;51.194;6.856;2022-07-10T11:10:42;6.07;;;2.03;;
19183;SDS011;9724;51.194;6.856;2022-07-10T11:13:15;1.27;;;1.23;;
19183;SDS011;9724;51.194;6.856;2022-07-10T11:15:44;3.43;;;1.23;;
19183;SDS011;9724;51.194;6.856;2022-07-10T11:18:13;4.03;;;1.53;;
19183;SDS011;9724;51.194;6.856;2022-07-10T11:20:42;4.03;;;1.23;;
19183;SDS011;9724;51.194;6.856;2022-07-10T11:26:06;1.40;;;1.30;;
19183;SDS011;9724;51.194;6.856;2022-07-10T11:28:41;4.80;;;1.27;;
19183;SDS011;9724;51.194;6.856;2022-07-10T11:31:13;3.00;;;1.37;;
19183;SDS011;9724;51.194;6.856;2022-07-10T11:33:41;2.43;;;1.30;;
19183;SDS011;9724;51.194;6.856;2022-07-10T11:36:10;4.17;;;1.50;;
19183;SDS011;9724;51.194;6.856;2022-07-10T11:38:40;3.50;;;1.23;;
19183;SDS011;9724;51.194;6.856;2022-07-10T11:41:13;5.50;;;1.50;;
19183;SDS011;9724;51.194;6.856;2022-07-10T11:43:45;3.17;;;1.63;;
19183;SDS011;9724;51.194;6.856;2022-07-10T11:46:14;2.83;;;1.93;;
19183;SDS011;9724;51.194;6.856;2022-07-10T11:48:42;3.87;;;1.80;;
19183;SDS011;9724;51.194;6.856;2022-07-10T11:51:16;2.60;;;1.87;;
19183;SDS011;9724;51.194;6.856;2022-07-10T11:53:52;8.43;;;2.10;;
19183;SDS011;9724;51.194;6.856;2022-07-10T11:56:22;2.60;;;1.97;;
19183;SDS011;9724;51.194;6.856;2022-07-10T11:58:54;9.93;;;2.10;;
19183;SDS011;9724;51.194;6.856;2022-07-10T12:01:25;3.90;;;2.47;;
19183;SDS011;9724;51.194;6.856;2022-07-10T12:03:53;6.37;;;2.17;;
19183;SDS011;9724;51.194;6.856;2022-07-10T12:06:25;8.00;;;2.60;;
19183;SDS011;9724;51.194;6.856;2022-07-10T12:08:53;3.77;;;2.37;;
19183;SDS011;9724;51.194;6.856;2022-07-10T12:11:21;3.53;;;2.20;;
19183;SDS011;9724;51.194;6.856;2022-07-10T12:13:51;5.63;;;2.20;;
19183;SDS011;9724;51.194;6.856;2022-07-10T12:16:20;4.53;;;2.07;;
19183;SDS011;9724;51.194;6.856;2022-07-10T12:18:49;4.33;;;1.90;;
19183;SDS011;9724;51.194;6.856;2022-07-10T12:21:17;6.07;;;2.10;;
19183;SDS011;9724;51.194;6.856;2022-07-10T12:23:45;7.43;;;1.80;;
19183;SDS011;9724;51.194;6.856;2022-07-10T12:26:15;5.00;;;1.93;;
19183;SDS011;9724;51.194;6.856;2022-07-10T12:28:54;2.07;;;1.87;;
19183;SDS011;9724;51.194;6.856;2022-07-10T12:31:23;5.40;;;1.90;;
19183;SDS011;9724;51.194;6.856;2022-07-10T12:33:54;4.90;;;1.80;;
19183;SDS011;9724;51.194;6.856;2022-07-10T12:36:24;2.80;;;1.90;;
19183;SDS011;9724;51.194;6.856;2022-07-10T12:38:52;6.30;;;2.13;;
19183;SDS011;9724;51.194;6.856;2022-07-10T12:41:22;9.10;;;2.10;;
19183;SDS011;9724;51.194;6.856;2022-07-10T12:43:51;3.10;;;2.20;;
19183;SDS011;9724;51.194;6.856;2022-07-10T12:46:21;4.80;;;2.60;;
19183;SDS011;9724;51.194;6.856;2022-07-10T12:49:04;8.03;;;2.50;;
19183;SDS011;9724;51.194;6.856;2022-07-10T12:51:34;7.00;;;2.70;;
19183;SDS011;9724;51.194;6.856;2022-07-10T12:54:32;10.17;;;2.60;;
19183;SDS011;9724;51.194;6.856;2022-07-10T12:57:01;8.20;;;2.87;;
19183;SDS011;9724;51.194;6.856;2022-07-10T12:59:33;9.47;;;2.80;;
19183;SDS011;9724;51.194;6.856;2022-07-10T13:02:14;7.40;;;2.90;;
19183;SDS011;9724;51.194;6.856;2022-07-10T13:04:53;6.37;;;2.77;;
19183;SDS011;9724;51.194;6.856;2022-07-10T13:07:28;6.70;;;2.40;;
19183;SDS011;9724;51.194;6.856;2022-07-10T13:09:58;7.20;;;2.67;;
19183;SDS011;9724;51.194;6.856;2022-07-10T13:12:30;5.77;;;2.50;;
19183;SDS011;9724;51.194;6.856;2022-07-10T13:14:59;7.10;;;3.20;;
19183;SDS011;9724;51.194;6.856;2022-07-10T13:17:27;7.23;;;3.10;;
19183;SDS011;9724;51.194;6.856;2022-07-10T13:19:54;8.17;;;2.97;;
19183;SDS011;9724;51.194;6.856;2022-07-10T13:22:23;3.40;;;2.10;;
19183;SDS011;9724;51.194;6.856;2022-07-10T13:24:50;8.33;;;3.13;;
19183;SDS011;9724;51.194;6.856;2022-07-10T13:27:18;6.23;;;2.80;;
19183;SDS011;9724;51.194;6.856;2022-07-10T13:29:47;6.17;;;2.53;;
19183;SDS011;9724;51.194;6.856;2022-07-10T13:32:16;4.40;;;2.77;;
19183;SDS011;9724;51.194;6.856;2022-07-10T13:34:44;2.93;;;2.60;;
19183;SDS011;9724;51.194;6.856;2022-07-10T13:37:12;8.30;;;2.57;;
19183;SDS011;9724;51.194;6.856;2022-07-10T13:39:41;4.20;;;2.07;;
19183;SDS011;9724;51.194;6.856;2022-07-10T13:42:08;6.23;;;2.20;;
19183;SDS011;9724;51.194;6.856;2022-07-10T13:44:36;6.20;;;2.10;;
19183;SDS011;9724;51.194;6.856;2022-07-10T13:47:04;7.97;;;1.90;;
19183;SDS011;9724;51.194;6.856;2022-07-10T13:49:33;4.07;;;1.87;;
19183;SDS011;9724;51.194;6.856;2022-07-10T13:52:01;9.37;;;1.77;;
19183;SDS011;9724;51.194;6.856;2022-07-10T13:54:29;6.23;;;2.07;;
19183;SDS011;9724;51.194;6.856;2022-07-10T13:56:57;8.80;;;1.70;;
19183;SDS011;9724;51.194;6.856;2022-07-10T13:59:25;7.20;;;1.90;;
19183;SDS011;9724;51.194;6.856;2022-07-10T14:01:53;3.97;;;1.60;;
19183;SDS011;9724;51.194;6.856;2022-07-10T14:04:21;2.97;;;1.70;;
19183;SDS011;9724;51.194;6.856;2022-07-10T14:06:50;8.57;;;1.90;;
19183;SDS011;9724;51.194;6.856;2022-07-10T14:09:18;3.70;;;1.57;;
19183;SDS011;9724;51.194;6.856;2022-07-10T14:11:46;2.90;;;1.57;;
19183;SDS011;9724;51.194;6.856;2022-07-10T14:14:14;5.47;;;1.60;;
19183;SDS011;9724;51.194;6.856;2022-07-10T14:16:41;2.83;;;1.50;;
19183;SDS011;9724;51.194;6.856;2022-07-10T14:19:09;3.47;;;1.70;;
19183;SDS011;9724;51.194;6.856;2022-07-10T14:21:39;2.73;;;1.70;;
19183;SDS011;9724;51.194;6.856;2022-07-10T14:24:08;8.00;;;1.57;;
19183;SDS011;9724;51.194;6.856;2022-07-10T14:26:36;4.73;;;1.57;;
19183;SDS011;9724;51.194;6.856;2022-07-10T14:29:04;9.30;;;1.90;;
19183;SDS011;9724;51.194;6.856;2022-07-10T14:31:32;2.33;;;1.67;;
19183;SDS011;9724;51.194;6.856;2022-07-10T14:34:01;2.80;;;1.50;;
19183;SDS011;9724;51.194;6.856;2022-07-10T14:36:28;10.13;;;1.93;;
19183;SDS011;9724;51.194;6.856;2022-07-10T14:38:56;4.43;;;2.23;;
19183;SDS011;9724;51.194;6.856;2022-07-10T14:41:25;6.10;;;1.73;;
19183;SDS011;9724;51.194;6.856;2022-07-10T14:43:53;1.57;;;1.40;;
19183;SDS011;9724;51.194;6.856;2022-07-10T14:46:22;2.17;;;1.67;;
19183;SDS011;9724;51.194;6.856;2022-07-10T14:48:50;3.27;;;1.80;;
19183;SDS011;9724;51.194;6.856;2022-07-10T14:51:17;3.90;;;1.40;;
19183;SDS011;9724;51.194;6.856;2022-07-10T14:53:52;1.83;;;1.30;;
19183;SDS011;9724;51.194;6.856;2022-07-10T14:56:20;2.17;;;1.50;;
19183;SDS011;9724;51.194;6.856;2022-07-10T14:58:49;5.57;;;1.40;;
19183;SDS011;9724;51.194;6.856;2022-07-10T15:01:37;8.03;;;1.70;;
19183;SDS011;9724;51.194;6.856;2022-07-10T15:04:05;4.20;;;1.80;;
19183;SDS011;9724;51.194;6.856;2022-07-10T15:06:32;2.60;;;1.57;;
19183;SDS011;9724;51.194;6.856;2022-07-10T15:09:00;6.43;;;1.77;;
19183;SDS011;9724;51.194;6.856;2022-07-10T15:11:28;2.23;;;1.60;;
19183;SDS011;9724;51.194;6.856;2022-07-10T15:13:57;7.90;;;2.70;;
19183;SDS011;9724;51.194;6.856;2022-07-10T15:16:26;3.43;;;1.50;;
19183;SDS011;9724;51.194;6.856;2022-07-10T15:18:55;1.53;;;1.37;;
19183;SDS011;9724;51.194;6.856;2022-07-10T15:21:23;5.90;;;1.60;;